createdAt,value
2023-05-11T00:03:10.539Z,53.89
2023-05-11T00:07:13.819Z,53.80
2023-05-11T00:11:18.786Z,54.15
2023-05-11T00:15:22.414Z,54.22
2023-05-11T00:19:25.426Z,54.46
2023-05-11T00:23:28.425Z,54.55
2023-05-11T00:27:32.801Z,54.55
2023-05-11T00:31:35.955Z,54.61
2023-05-11T00:35:39.254Z,54.82
2023-05-11T00:39:42.307Z,54.93
2023-05-11T00:43:46.872Z,54.77
2023-05-11T00:47:49.969Z,55.07
2023-05-11T00:51:53.148Z,55.32
2023-05-11T00:55:56.238Z,54.94
2023-05-11T01:00:02.658Z,55.03
2023-05-11T01:04:06.610Z,55.16
2023-05-11T01:08:14.382Z,55.53
2023-05-11T01:12:27.857Z,55.41
2023-05-11T01:16:39.312Z,55.56
2023-05-11T01:20:47.957Z,55.58
2023-05-11T01:25:06.774Z,55.46
2023-05-11T01:29:44.203Z,55.77
2023-05-11T01:33:55.301Z,55.79
2023-05-11T01:38:00.850Z,55.80
2023-05-11T01:42:09.712Z,55.87
2023-05-11T01:46:15.672Z,55.91
2023-05-11T01:50:22.561Z,55.93
2023-05-11T01:54:26.587Z,55.55
2023-05-11T01:58:31.065Z,55.32
2023-05-11T02:02:35.379Z,55.33
2023-05-11T02:06:42.220Z,55.45
2023-05-11T02:10:47.786Z,55.33
2023-05-11T02:14:53.664Z,55.50
2023-05-11T02:18:58.877Z,55.53
2023-05-11T02:23:04.542Z,55.73
2023-05-11T02:27:07.735Z,55.80
2023-05-11T02:31:17.825Z,55.92
2023-05-11T02:35:25.168Z,56.00
2023-05-11T02:39:34.643Z,55.99
2023-05-11T02:43:43.405Z,56.08
2023-05-11T02:47:53.290Z,56.39
2023-05-11T02:52:02.270Z,55.90
2023-05-11T02:56:09.712Z,56.33
2023-05-11T03:00:14.462Z,56.33
2023-05-11T03:04:18.579Z,56.25
2023-05-11T03:08:21.739Z,56.57
2023-05-11T03:12:31.500Z,56.42
2023-05-11T03:16:38.538Z,56.46
2023-05-11T03:20:45.783Z,56.70
2023-05-11T03:24:49.660Z,56.66
2023-05-11T03:28:55.188Z,56.54
2023-05-11T03:32:58.594Z,56.69
2023-05-11T03:37:03.178Z,56.79
2023-05-11T03:41:06.358Z,56.73
2023-05-11T03:45:17.701Z,56.84
2023-05-11T03:49:21.538Z,56.77
2023-05-11T03:53:25.674Z,56.56
2023-05-11T03:57:29.279Z,56.75
2023-05-11T04:01:34.333Z,56.71
2023-05-11T04:05:37.471Z,57.01
2023-05-11T04:09:43.180Z,56.83
2023-05-11T04:13:46.285Z,56.83
2023-05-11T04:17:51.534Z,57.23
2023-05-11T04:21:54.609Z,57.46
2023-05-11T04:25:57.797Z,57.45
2023-05-11T04:30:00.821Z,57.21
2023-05-11T04:34:09.033Z,56.76
2023-05-11T04:38:13.589Z,57.10
2023-05-11T04:42:16.792Z,57.20
2023-05-11T04:46:23.854Z,57.55
2023-05-11T04:50:29.543Z,57.75
2023-05-11T04:54:33.346Z,57.79
2023-05-11T04:58:36.616Z,57.72
2023-05-11T05:02:39.753Z,57.66
2023-05-11T05:06:44.195Z,57.63
2023-05-11T05:10:48.536Z,57.57
2023-05-11T05:14:51.749Z,57.63
2023-05-11T05:18:55.013Z,57.42
2023-05-11T05:23:00.079Z,57.86
2023-05-11T05:27:03.212Z,58.04
2023-05-11T05:31:06.442Z,57.93
2023-05-11T05:35:10.749Z,57.54
2023-05-11T05:39:15.673Z,57.50
2023-05-11T05:43:18.803Z,57.68
2023-05-11T05:47:22.379Z,57.31
2023-05-11T05:51:25.680Z,56.98
2023-05-11T05:55:30.361Z,56.35
2023-05-11T05:59:34.458Z,56.41
2023-05-11T06:03:38.702Z,56.05
2023-05-11T06:07:42.022Z,55.68
2023-05-11T06:11:46.525Z,55.33
2023-05-11T06:15:49.790Z,55.05
2023-05-11T06:20:08.132Z,54.68
2023-05-11T06:24:12.076Z,54.01
2023-05-11T06:28:19.306Z,54.24
2023-05-11T06:32:22.491Z,53.69
2023-05-11T06:36:25.636Z,53.06
2023-05-11T06:40:29.281Z,53.23
2023-05-11T06:44:34.306Z,53.13
2023-05-11T06:48:37.652Z,53.08
2023-05-11T06:52:40.676Z,52.86
2023-05-11T06:56:43.862Z,53.13
2023-05-11T07:00:48.573Z,52.69
2023-05-11T07:04:51.692Z,52.33
2023-05-11T07:08:54.735Z,51.85
2023-05-11T07:12:57.779Z,51.96
2023-05-11T07:17:02.329Z,52.06
2023-05-11T07:21:05.461Z,51.29
2023-05-11T07:25:10.459Z,51.37
2023-05-11T07:29:13.517Z,51.44
2023-05-11T07:33:17.957Z,50.83
2023-05-11T07:37:21.030Z,50.68
2023-05-11T07:41:26.862Z,50.85
2023-05-11T07:45:29.951Z,50.92
2023-05-11T07:49:42.922Z,50.37
2023-05-11T07:53:47.208Z,50.64
2023-05-11T07:57:50.253Z,50.08
2023-05-11T08:01:53.485Z,49.79
2023-05-11T08:05:58.180Z,49.80
2023-05-11T08:10:01.294Z,49.62
2023-05-11T08:14:04.767Z,49.25
2023-05-11T08:18:08.230Z,48.09
2023-05-11T08:22:12.760Z,48.26
2023-05-11T08:26:16.471Z,48.39
2023-05-11T08:30:19.940Z,47.65
2023-05-11T08:34:23.520Z,48.14
2023-05-11T08:38:28.012Z,48.72
2023-05-11T08:42:35.151Z,48.49
2023-05-11T08:46:42.920Z,48.57
2023-05-11T08:50:46.734Z,47.99
2023-05-11T08:54:51.136Z,47.28
2023-05-11T08:58:56.173Z,47.11
2023-05-11T09:02:59.659Z,47.02
2023-05-11T09:07:02.740Z,46.75
2023-05-11T09:11:07.963Z,46.58
2023-05-11T09:15:12.306Z,46.08
2023-05-11T09:19:16.730Z,46.06
2023-05-11T09:23:20.473Z,46.40
2023-05-11T09:27:26.150Z,45.57
2023-05-11T09:31:42.855Z,44.51
2023-05-11T09:35:46.050Z,44.24
2023-05-11T09:40:12.978Z,44.31
2023-05-11T09:44:20.476Z,44.22
2023-05-11T09:48:29.641Z,44.67
2023-05-11T09:52:32.929Z,44.11
2023-05-11T09:56:49.597Z,43.67
2023-05-11T10:00:54.838Z,43.36
2023-05-11T10:04:59.465Z,43.11
2023-05-11T10:09:10.045Z,42.47
2023-05-11T10:13:13.203Z,42.57
2023-05-11T10:17:18.322Z,42.94
2023-05-11T10:21:21.841Z,42.57
2023-05-11T10:25:26.578Z,42.54
2023-05-11T10:29:30.768Z,42.31
2023-05-11T10:33:36.583Z,42.15
2023-05-11T10:37:41.566Z,41.92
2023-05-11T10:41:54.367Z,41.16
2023-05-11T10:46:09.464Z,40.81
2023-05-11T10:50:30.527Z,41.27
2023-05-11T10:54:47.629Z,41.15
2023-05-11T10:59:07.584Z,42.00
2023-05-11T11:03:12.495Z,41.05
2023-05-11T11:07:18.760Z,40.65
2023-05-11T11:11:36.006Z,39.66
2023-05-11T11:16:16.200Z,40.40
2023-05-11T11:20:48.816Z,39.92
2023-05-11T11:24:53.282Z,39.99
2023-05-11T11:29:12.370Z,39.88
2023-05-11T11:33:35.618Z,40.37
2023-05-11T11:38:03.091Z,39.00
2023-05-11T11:42:09.486Z,39.76
2023-05-11T11:46:27.104Z,39.72
2023-05-11T11:50:30.386Z,39.65
2023-05-11T11:54:40.146Z,39.40
2023-05-11T11:59:01.343Z,39.13
2023-05-11T12:03:05.842Z,39.75
2023-05-11T12:07:11.499Z,39.10
2023-05-11T12:11:19.039Z,38.85
2023-05-11T12:15:27.668Z,38.37
2023-05-11T12:19:30.968Z,38.14
2023-05-11T12:23:34.048Z,38.79
2023-05-11T12:27:37.398Z,38.15
2023-05-11T12:31:43.775Z,38.53
2023-05-11T12:35:47.049Z,39.05
2023-05-11T12:39:55.369Z,37.89
2023-05-11T12:43:58.668Z,37.05
2023-05-11T12:48:04.336Z,37.00
2023-05-11T12:52:09.187Z,37.14
2023-05-11T12:56:12.474Z,36.93
2023-05-11T13:00:18.968Z,37.15
2023-05-11T13:04:33.879Z,37.31
2023-05-11T13:08:37.968Z,36.75
2023-05-11T13:12:49.549Z,36.58
2023-05-11T13:16:55.847Z,36.03
2023-05-11T13:21:09.844Z,36.95
2023-05-11T13:25:13.178Z,37.05
2023-05-11T13:29:16.461Z,36.99
2023-05-11T13:33:19.934Z,37.03
2023-05-11T13:37:24.402Z,36.86
2023-05-11T13:41:27.380Z,36.94
2023-05-11T13:45:30.496Z,37.00
2023-05-11T13:49:33.391Z,36.74
2023-05-11T13:53:37.634Z,36.56
2023-05-11T13:57:40.796Z,36.54
2023-05-11T14:01:43.857Z,36.61
2023-05-11T14:05:49.021Z,36.53
2023-05-11T14:09:53.328Z,36.15
2023-05-11T14:13:56.262Z,36.09
2023-05-11T14:18:00.464Z,35.60
2023-05-11T14:22:03.523Z,35.88
2023-05-11T14:26:07.945Z,36.15
2023-05-11T14:30:11.655Z,36.15
2023-05-11T14:34:14.547Z,36.46
2023-05-11T14:38:17.694Z,36.13
2023-05-11T14:42:22.129Z,36.84
2023-05-11T14:46:26.715Z,36.74
2023-05-11T14:50:30.301Z,35.90
2023-05-11T14:54:33.221Z,36.10
2023-05-11T14:58:37.645Z,36.03
2023-05-11T15:02:40.951Z,35.86
2023-05-11T15:06:44.135Z,36.35
2023-05-11T15:10:47.110Z,36.58
2023-05-11T15:14:51.938Z,36.50
2023-05-11T15:18:55.195Z,36.04
2023-05-11T15:22:58.239Z,35.54
2023-05-11T15:27:01.226Z,35.83
2023-05-11T15:31:05.522Z,36.17
2023-05-11T15:35:09.148Z,36.54
2023-05-11T15:39:12.202Z,36.95
2023-05-11T15:43:15.162Z,36.21
2023-05-11T15:47:19.479Z,35.73
2023-05-11T15:51:22.634Z,35.44
2023-05-11T15:55:25.640Z,35.59
2023-05-11T15:59:28.663Z,35.77
2023-05-11T16:03:33.229Z,35.74
2023-05-11T16:07:36.218Z,35.76
2023-05-11T16:11:39.128Z,35.30
2023-05-11T16:15:42.151Z,35.11
2023-05-11T16:19:46.619Z,36.12
2023-05-11T16:23:49.559Z,35.87
2023-05-11T16:27:52.521Z,36.27
2023-05-11T16:31:55.876Z,35.96
2023-05-11T16:36:00.276Z,36.25
2023-05-11T16:40:04.760Z,35.98
2023-05-11T16:44:07.724Z,35.70
2023-05-11T16:48:10.784Z,35.71
2023-05-11T16:52:15.045Z,36.03
2023-05-11T16:56:18.042Z,35.75
2023-05-11T17:00:21.657Z,36.15
2023-05-11T17:04:25.006Z,35.90
2023-05-11T17:08:29.617Z,36.02
2023-05-11T17:12:35.575Z,36.25
2023-05-11T17:16:38.680Z,36.41
2023-05-11T17:20:42.072Z,36.71
2023-05-11T17:24:46.792Z,37.00
2023-05-11T17:28:49.806Z,36.88
2023-05-11T17:32:53.083Z,37.02
2023-05-11T17:36:56.641Z,37.25
2023-05-11T17:41:04.765Z,36.97
2023-05-11T17:45:09.508Z,37.34
2023-05-11T17:49:12.427Z,37.26
2023-05-11T17:53:15.403Z,37.27
2023-05-11T17:57:19.687Z,37.26
2023-05-11T18:01:22.848Z,37.53
2023-05-11T18:05:33.361Z,37.72
2023-05-11T18:09:39.758Z,38.11
2023-05-11T18:13:44.035Z,38.24
2023-05-11T18:17:47.006Z,38.44
2023-05-11T18:21:51.938Z,38.27
2023-05-11T18:25:55.165Z,40.05
2023-05-11T18:29:59.510Z,42.24
2023-05-11T18:34:02.416Z,43.62
2023-05-11T18:38:05.398Z,44.51
2023-05-11T18:42:08.499Z,45.32
2023-05-11T18:46:12.821Z,46.99
2023-05-11T18:50:15.992Z,46.46
2023-05-11T18:54:18.919Z,46.94
2023-05-11T18:58:22.466Z,47.84
2023-05-11T19:02:26.839Z,48.14
2023-05-11T19:06:29.955Z,48.80
2023-05-11T19:10:32.922Z,49.15
2023-05-11T19:14:37.407Z,49.50
2023-05-11T19:18:41.703Z,50.00
2023-05-11T19:22:44.899Z,50.15
2023-05-11T19:27:02.559Z,50.10
2023-05-11T19:31:09.344Z,50.44
2023-05-11T19:35:14.754Z,51.03
2023-05-11T19:39:18.034Z,51.39
2023-05-11T19:43:20.983Z,51.54
2023-05-11T19:47:23.905Z,52.00
2023-05-11T19:51:28.211Z,52.27
2023-05-11T19:55:31.309Z,52.60
2023-05-11T19:59:34.261Z,53.12
2023-05-11T20:03:37.334Z,53.15
2023-05-11T20:07:41.805Z,53.78
2023-05-11T20:11:44.809Z,54.02
2023-05-11T20:15:48.868Z,53.83
2023-05-11T20:19:51.901Z,54.09
2023-05-11T20:23:56.664Z,54.72
2023-05-11T20:27:59.645Z,54.77
2023-05-11T20:32:02.829Z,55.15
2023-05-11T20:36:06.338Z,55.37
2023-05-11T20:40:14.578Z,55.62
2023-05-11T20:44:19.720Z,56.02
2023-05-11T20:48:32.464Z,56.17
2023-05-11T20:52:42.541Z,56.33
2023-05-11T20:56:47.365Z,56.34
2023-05-11T21:00:50.363Z,56.50
2023-05-11T21:04:54.081Z,56.73
2023-05-11T21:08:57.142Z,56.78
2023-05-11T21:13:01.888Z,56.94
2023-05-11T21:17:04.850Z,57.13
2023-05-11T21:21:09.156Z,57.15
2023-05-11T21:25:16.057Z,57.56
2023-05-11T21:29:20.566Z,57.44
2023-05-11T21:33:23.725Z,57.75
2023-05-11T21:37:26.913Z,57.97
2023-05-11T21:41:29.922Z,57.99
2023-05-11T21:45:36.876Z,58.03
2023-05-11T21:49:39.852Z,58.45
2023-05-11T21:53:42.766Z,58.71
2023-05-11T21:57:45.705Z,58.91
2023-05-11T22:01:50.003Z,59.08
2023-05-11T22:05:52.909Z,59.22
2023-05-11T22:09:56.041Z,58.67
2023-05-11T22:13:59.054Z,59.66
2023-05-11T22:18:07.408Z,59.79
2023-05-11T22:22:10.380Z,59.96
2023-05-11T22:26:13.322Z,60.48
2023-05-11T22:30:16.498Z,60.19
2023-05-11T22:34:22.044Z,60.34
2023-05-11T22:38:24.994Z,60.52
2023-05-11T22:42:30.668Z,60.84
2023-05-11T22:46:33.658Z,60.93
2023-05-11T22:50:37.920Z,61.09
2023-05-11T22:54:40.864Z,61.23
2023-05-11T22:58:43.756Z,61.28
2023-05-11T23:02:47.185Z,61.59
2023-05-11T23:06:51.533Z,61.81
2023-05-11T23:10:54.679Z,61.74
2023-05-11T23:14:57.589Z,61.67
2023-05-11T23:19:02.361Z,61.86
2023-05-11T23:23:06.683Z,61.97
2023-05-11T23:27:09.733Z,62.03
2023-05-11T23:31:12.689Z,62.23
2023-05-11T23:35:15.857Z,62.32
2023-05-11T23:39:35.497Z,62.13
2023-05-11T23:43:38.510Z,62.13
2023-05-11T23:47:41.439Z,62.55
2023-05-11T23:51:44.509Z,62.59
2023-05-11T23:55:49.295Z,62.61
2023-05-11T23:59:52.237Z,62.61
